createdAt,value
2023-04-11T00:00:20.102Z,0.00
2023-04-11T00:01:20.386Z,0.00
2023-04-11T00:02:20.946Z,0.00
2023-04-11T00:03:21.330Z,0.00
2023-04-11T00:04:21.502Z,0.00
2023-04-11T00:05:21.779Z,0.00
2023-04-11T00:06:22.122Z,0.00
2023-04-11T00:07:22.483Z,0.00
2023-04-11T00:08:22.857Z,0.00
2023-04-11T00:09:23.173Z,0.00
2023-04-11T00:10:23.524Z,0.00
2023-04-11T00:11:23.865Z,0.00
2023-04-11T00:12:24.210Z,0.00
2023-04-11T00:13:24.591Z,0.00
2023-04-11T00:14:24.930Z,0.00
2023-04-11T00:15:25.276Z,0.00
2023-04-11T00:16:25.680Z,0.00
2023-04-11T00:17:26.040Z,0.00
2023-04-11T00:18:26.373Z,0.00
2023-04-11T00:19:26.711Z,0.00
2023-04-11T00:20:27.072Z,0.00
2023-04-11T00:21:27.415Z,0.00
2023-04-11T00:22:27.784Z,0.00
2023-04-11T00:23:28.131Z,0.00
2023-04-11T00:24:28.429Z,0.00
2023-04-11T00:25:28.771Z,0.00
2023-04-11T00:26:29.127Z,0.00
2023-04-11T00:27:29.474Z,0.00
2023-04-11T00:28:29.861Z,0.00
2023-04-11T00:29:30.199Z,0.00
2023-04-11T00:30:30.539Z,0.00
2023-04-11T00:31:30.886Z,0.00
2023-04-11T00:32:31.268Z,0.00
2023-04-11T00:33:31.593Z,0.00
2023-04-11T00:34:31.943Z,0.00
2023-04-11T00:35:32.324Z,0.00
2023-04-11T00:36:32.752Z,0.00
2023-04-11T00:37:33.019Z,0.00
2023-04-11T00:38:33.376Z,0.00
2023-04-11T00:39:33.721Z,0.00
2023-04-11T00:40:34.051Z,0.00
2023-04-11T00:41:34.409Z,0.00
2023-04-11T00:42:34.776Z,0.00
2023-04-11T00:43:35.158Z,0.00
2023-04-11T00:44:35.476Z,0.00
2023-04-11T00:45:35.853Z,0.00
2023-04-11T00:46:36.190Z,0.00
2023-04-11T00:47:36.599Z,0.00
2023-04-11T00:48:36.921Z,0.00
2023-04-11T00:49:37.214Z,0.00
2023-04-11T00:50:37.551Z,0.00
2023-04-11T00:51:37.903Z,0.00
2023-04-11T00:52:38.292Z,0.00
2023-04-11T00:53:38.630Z,0.00
2023-04-11T00:54:38.930Z,0.00
2023-04-11T00:55:39.279Z,0.00
2023-04-11T00:56:39.622Z,0.00
2023-04-11T00:57:39.969Z,0.00
2023-04-11T00:58:40.347Z,0.00
2023-04-11T00:59:40.673Z,0.00
2023-04-11T01:00:41.018Z,0.00
2023-04-11T01:01:41.424Z,0.00
2023-04-11T01:02:41.818Z,0.00
2023-04-11T01:03:42.136Z,0.00
2023-04-11T01:04:42.407Z,0.00
2023-04-11T01:05:42.751Z,0.00
2023-04-11T01:06:43.108Z,0.00
2023-04-11T01:07:43.452Z,0.00
2023-04-11T01:08:43.918Z,0.00
2023-04-11T01:09:44.140Z,0.00
2023-04-11T01:10:44.490Z,0.00
2023-04-11T01:11:44.857Z,0.00
2023-04-11T01:12:45.187Z,0.00
2023-04-11T01:13:45.537Z,0.00
2023-04-11T01:14:45.890Z,0.00
2023-04-11T01:15:46.262Z,0.00
2023-04-11T01:16:46.641Z,0.00
2023-04-11T01:17:46.958Z,0.00
2023-04-11T01:18:47.294Z,0.00
2023-04-11T01:19:47.633Z,0.00
2023-04-11T01:20:47.984Z,0.00
2023-04-11T01:21:48.336Z,0.00
2023-04-11T01:22:48.672Z,0.00
2023-04-11T01:23:49.042Z,0.00
2023-04-11T01:24:49.384Z,0.00
2023-04-11T01:25:49.724Z,0.00
2023-04-11T01:26:50.088Z,0.00
2023-04-11T01:27:50.438Z,0.00
2023-04-11T01:28:50.805Z,0.00
2023-04-11T01:29:51.103Z,0.00
2023-04-11T01:30:51.523Z,0.00
2023-04-11T01:31:51.816Z,0.00
2023-04-11T01:32:52.167Z,0.00
2023-04-11T01:33:52.525Z,0.00
2023-04-11T01:34:52.861Z,0.00
2023-04-11T01:35:53.255Z,0.00
2023-04-11T01:36:53.571Z,0.00
2023-04-11T01:37:53.926Z,0.00
2023-04-11T01:38:54.500Z,0.00
2023-04-11T01:39:54.629Z,0.00
2023-04-11T01:40:54.999Z,0.00
2023-04-11T01:41:55.341Z,0.00
2023-04-11T01:42:55.699Z,0.00
2023-04-11T01:43:56.114Z,0.00
2023-04-11T01:44:56.428Z,0.00
2023-04-11T01:45:56.741Z,0.00
2023-04-11T01:46:57.088Z,0.00
2023-04-11T01:47:57.540Z,0.00
2023-04-11T01:48:58.038Z,0.00
2023-04-11T01:49:58.142Z,0.00
2023-04-11T01:50:58.483Z,0.00
2023-04-11T01:51:58.826Z,0.00
2023-04-11T01:52:59.172Z,0.00
2023-04-11T01:53:59.540Z,0.00
2023-04-11T01:54:59.922Z,0.00
2023-04-11T01:56:00.208Z,0.00
2023-04-11T01:57:00.556Z,0.00
2023-04-11T01:58:00.909Z,0.00
2023-04-11T01:59:01.289Z,0.00
2023-04-11T02:00:01.659Z,0.00
2023-04-11T02:01:02.093Z,0.00
2023-04-11T02:02:02.424Z,0.00
2023-04-11T02:03:02.796Z,0.00
2023-04-11T02:04:03.207Z,0.00
2023-04-11T02:05:03.381Z,0.00
2023-04-11T02:06:03.720Z,0.00
2023-04-11T02:07:04.058Z,0.00
2023-04-11T02:08:04.405Z,0.00
2023-04-11T02:09:04.771Z,0.00
2023-04-11T02:10:05.147Z,0.00
2023-04-11T02:11:05.476Z,0.00
2023-04-11T02:12:05.836Z,0.00
2023-04-11T02:13:06.182Z,0.00
2023-04-11T02:14:06.534Z,0.00
2023-04-11T02:15:06.891Z,0.00
2023-04-11T02:16:07.286Z,0.00
2023-04-11T02:17:07.590Z,0.00
2023-04-11T02:18:08.026Z,0.00
2023-04-11T02:19:08.343Z,0.00
2023-04-11T02:20:08.691Z,0.00
2023-04-11T02:21:09.035Z,0.00
2023-04-11T02:22:09.404Z,0.00
2023-04-11T02:23:09.861Z,0.00
2023-04-11T02:24:10.116Z,0.00
2023-04-11T02:25:10.493Z,0.00
2023-04-11T02:26:10.815Z,0.00
2023-04-11T02:27:11.159Z,0.00
2023-04-11T02:28:11.532Z,0.00
2023-04-11T02:29:11.869Z,0.00
2023-04-11T02:30:12.204Z,0.00
2023-04-11T02:31:12.657Z,0.00
2023-04-11T02:32:13.006Z,0.00
2023-04-11T02:33:13.240Z,0.00
2023-04-11T02:34:13.614Z,0.00
2023-04-11T02:35:13.908Z,0.00
2023-04-11T02:36:14.274Z,0.00
2023-04-11T02:37:14.606Z,0.00
2023-04-11T02:38:14.968Z,0.00
2023-04-11T02:39:15.332Z,0.00
2023-04-11T02:40:15.698Z,0.00
2023-04-11T02:41:16.018Z,0.00
2023-04-11T02:42:16.373Z,0.00
2023-04-11T02:43:16.735Z,0.00
2023-04-11T02:44:17.133Z,0.00
2023-04-11T02:45:17.462Z,0.00
2023-04-11T02:46:17.837Z,0.00
2023-04-11T02:47:18.178Z,0.00
2023-04-11T02:48:18.513Z,0.00
2023-04-11T02:49:18.877Z,0.00
2023-04-11T02:50:19.228Z,0.00
2023-04-11T02:51:19.584Z,0.00
2023-04-11T02:52:19.936Z,0.00
2023-04-11T02:53:20.287Z,0.00
2023-04-11T02:54:20.665Z,0.00
2023-04-11T02:55:21.014Z,0.00
2023-04-11T02:56:21.329Z,0.00
2023-04-11T02:57:21.674Z,0.00
2023-04-11T02:58:22.032Z,0.00
2023-04-11T02:59:22.393Z,0.00
2023-04-11T03:00:22.759Z,0.00
2023-04-11T03:01:23.083Z,0.00
2023-04-11T03:02:23.763Z,0.00
2023-04-11T03:03:23.875Z,0.00
2023-04-11T03:04:24.154Z,0.00
2023-04-11T03:05:24.448Z,0.00
2023-04-11T03:06:24.819Z,0.00
2023-04-11T03:07:25.142Z,0.00
2023-04-11T03:08:25.495Z,0.00
2023-04-11T03:09:25.879Z,0.00
2023-04-11T03:10:26.183Z,0.00
2023-04-11T03:11:26.554Z,0.00
2023-04-11T03:12:26.889Z,0.00
2023-04-11T03:13:27.237Z,0.00
2023-04-11T03:14:27.596Z,0.00
2023-04-11T03:15:27.937Z,0.00
2023-04-11T03:16:28.365Z,0.00
2023-04-11T03:17:28.675Z,0.00
2023-04-11T03:18:29.004Z,0.00
2023-04-11T03:19:29.372Z,0.00
2023-04-11T03:20:29.735Z,0.00
2023-04-11T03:21:30.073Z,0.00
2023-04-11T03:22:30.421Z,0.00
2023-04-11T03:23:30.782Z,0.00
2023-04-11T03:24:31.173Z,0.00
2023-04-11T03:25:31.475Z,0.00
2023-04-11T03:26:31.829Z,0.00
2023-04-11T03:27:32.162Z,0.00
2023-04-11T03:28:32.520Z,0.00
2023-04-11T03:29:32.876Z,0.00
2023-04-11T03:30:33.253Z,0.00
2023-04-11T03:31:33.623Z,0.00
2023-04-11T03:32:33.958Z,0.00
2023-04-11T03:33:34.305Z,0.00
2023-04-11T03:34:34.659Z,0.00
2023-04-11T03:35:35.084Z,0.00
2023-04-11T03:36:35.344Z,0.00
2023-04-11T03:37:35.691Z,0.00
2023-04-11T03:38:36.048Z,0.00
2023-04-11T03:39:36.508Z,0.00
2023-04-11T03:40:36.727Z,0.00
2023-04-11T03:41:37.073Z,0.00
2023-04-11T03:42:37.433Z,0.00
2023-04-11T03:43:37.770Z,0.00
2023-04-11T03:44:38.187Z,0.00
2023-04-11T03:45:38.481Z,0.00
2023-04-11T03:46:38.852Z,0.00
2023-04-11T03:47:39.215Z,0.00
2023-04-11T03:48:39.518Z,0.00
2023-04-11T03:49:39.933Z,0.00
2023-04-11T03:50:40.269Z,0.00
2023-04-11T03:51:40.610Z,0.00
2023-04-11T03:52:40.975Z,0.00
2023-04-11T03:53:41.325Z,0.00
2023-04-11T03:54:41.707Z,0.00
2023-04-11T03:55:42.024Z,0.00
2023-04-11T03:56:42.398Z,0.00
2023-04-11T03:57:42.766Z,0.00
2023-04-11T03:58:43.083Z,0.00
2023-04-11T03:59:43.474Z,0.00
2023-04-11T04:00:43.659Z,1.00
2023-04-11T04:01:43.985Z,1.00
2023-04-11T04:02:44.370Z,1.00
2023-04-11T04:03:44.697Z,2.00
2023-04-11T04:04:44.763Z,2.00
2023-04-11T04:05:44.998Z,2.00
2023-04-11T04:06:45.129Z,3.00
2023-04-11T04:07:45.437Z,4.00
2023-04-11T04:08:45.718Z,5.00
2023-04-11T04:09:46.046Z,7.00
2023-04-11T04:10:46.316Z,7.00
2023-04-11T04:11:46.603Z,9.00
2023-04-11T04:12:46.904Z,10.00
2023-04-11T04:13:47.221Z,11.00
2023-04-11T04:14:47.362Z,15.00
2023-04-11T04:15:47.643Z,18.00
2023-04-11T04:16:47.974Z,22.00
2023-04-11T04:17:48.120Z,22.00
2023-04-11T04:18:48.280Z,24.00
2023-04-11T04:19:48.482Z,25.00
2023-04-11T04:20:48.616Z,36.00
2023-04-11T04:21:48.897Z,39.00
2023-04-11T04:22:49.073Z,41.00
2023-04-11T04:23:49.235Z,53.00
2023-04-11T04:24:49.541Z,53.00
2023-04-11T04:25:49.822Z,68.00
2023-04-11T04:26:50.096Z,76.00
2023-04-11T04:27:50.409Z,85.00
2023-04-11T04:28:50.715Z,87.00
2023-04-11T04:30:03.760Z,104.00
2023-04-11T04:30:51.158Z,113.00
2023-04-11T04:31:51.508Z,119.00
2023-04-11T04:32:51.775Z,137.00
2023-04-11T04:33:52.075Z,151.00
2023-04-11T04:34:52.236Z,166.00
2023-04-11T04:35:52.699Z,178.00
2023-04-11T04:36:52.678Z,189.00
2023-04-11T04:37:52.852Z,202.00
2023-04-11T04:38:53.018Z,212.00
2023-04-11T04:39:53.207Z,223.00
2023-04-11T04:40:53.479Z,236.00
2023-04-11T04:41:53.658Z,255.00
2023-04-11T04:42:53.829Z,274.00
2023-04-11T04:43:54.240Z,302.00
2023-04-11T04:44:54.330Z,321.00
2023-04-11T04:45:54.539Z,346.00
2023-04-11T04:46:54.758Z,372.00
2023-04-11T04:47:54.953Z,384.00
2023-04-11T04:48:55.108Z,405.00
2023-04-11T04:49:55.315Z,427.00
2023-04-11T04:50:55.571Z,449.00
2023-04-11T04:51:55.742Z,469.00
2023-04-11T04:52:55.919Z,488.00
2023-04-11T04:53:56.208Z,502.00
2023-04-11T04:54:56.287Z,524.00
2023-04-11T04:55:56.436Z,553.00
2023-04-11T04:56:56.619Z,590.00
2023-04-11T04:57:56.904Z,624.00
2023-04-11T04:58:57.174Z,658.00
2023-04-11T04:59:57.379Z,692.00
2023-04-11T05:00:57.660Z,731.00
2023-04-11T05:01:57.880Z,760.00
2023-04-11T05:02:58.346Z,802.00
2023-04-11T05:03:58.580Z,839.00
2023-04-11T05:04:58.455Z,868.00
2023-04-11T05:05:58.736Z,903.00
2023-04-11T05:06:58.920Z,939.00
2023-04-11T05:07:59.074Z,971.00
2023-04-11T05:08:59.254Z,1005.00
2023-04-11T05:09:59.575Z,1025.00
2023-04-11T05:10:59.740Z,1054.00
2023-04-11T05:11:59.900Z,1072.00
2023-04-11T05:13:00.117Z,1067.00
2023-04-11T05:14:00.391Z,1054.00
2023-04-11T05:15:00.585Z,1050.00
2023-04-11T05:16:00.723Z,1042.00
2023-04-11T05:17:01.090Z,1047.00
2023-04-11T05:18:01.248Z,1047.00
2023-04-11T05:19:01.364Z,1033.00
2023-04-11T05:20:01.643Z,1009.00
2023-04-11T05:21:01.734Z,1002.00
2023-04-11T05:22:01.922Z,1007.00
2023-04-11T05:23:02.105Z,1020.00
2023-04-11T05:24:02.263Z,1036.00
2023-04-11T05:25:02.587Z,1078.00
2023-04-11T05:26:02.738Z,1185.00
2023-04-11T05:27:03.025Z,1350.00
2023-04-11T05:28:03.262Z,1365.00
2023-04-11T05:29:03.392Z,1342.00
2023-04-11T05:30:03.727Z,1336.00
2023-04-11T05:31:04.062Z,1417.00
2023-04-11T05:32:04.253Z,1525.00
2023-04-11T05:33:04.480Z,1609.00
2023-04-11T05:34:04.646Z,1676.00
2023-04-11T05:35:05.004Z,1709.00
2023-04-11T05:36:05.158Z,1724.00
2023-04-11T05:37:05.322Z,1784.00
2023-04-11T05:38:05.526Z,1792.00
2023-04-11T05:39:05.691Z,1667.00
2023-04-11T05:40:05.874Z,1572.00
2023-04-11T05:41:06.050Z,1628.00
2023-04-11T05:42:08.019Z,1772.00
2023-04-11T05:43:06.520Z,2021.00
2023-04-11T05:44:06.845Z,2196.00
2023-04-11T05:45:07.070Z,2286.00
2023-04-11T05:46:07.238Z,2275.00
2023-04-11T05:47:07.371Z,2241.00
2023-04-11T05:48:07.816Z,2261.00
2023-04-11T05:49:07.980Z,2301.00
2023-04-11T05:50:08.317Z,2440.00
2023-04-11T05:51:08.469Z,2473.00
2023-04-11T05:52:09.350Z,2440.00
2023-04-11T05:53:09.073Z,2567.00
2023-04-11T05:54:09.360Z,2613.00
2023-04-11T05:55:09.589Z,2717.00
2023-04-11T05:56:09.835Z,2988.00
2023-04-11T05:57:10.150Z,3265.00
2023-04-11T05:58:10.318Z,3282.00
2023-04-11T05:59:10.480Z,3302.00
2023-04-11T06:00:10.684Z,3292.00
2023-04-11T06:01:10.954Z,3245.00
2023-04-11T06:02:11.237Z,3345.00
2023-04-11T06:03:11.457Z,2866.00
2023-04-11T06:04:11.711Z,2772.00
2023-04-11T06:05:12.217Z,2933.00
2023-04-11T06:06:12.082Z,3154.00
2023-04-11T06:07:12.433Z,3301.00
2023-04-11T06:08:12.422Z,3333.00
2023-04-11T06:09:12.592Z,3416.00
2023-04-11T06:10:12.925Z,3494.00
2023-04-11T06:11:13.079Z,3611.00
2023-04-11T06:12:13.267Z,3656.00
2023-04-11T06:13:13.458Z,3760.00
2023-04-11T06:14:13.739Z,3478.00
2023-04-11T06:15:14.093Z,3450.00
2023-04-11T06:16:14.359Z,4115.00
2023-04-11T06:17:14.655Z,4699.00
2023-04-11T06:18:14.932Z,4447.00
2023-04-11T06:19:15.413Z,4412.00
2023-04-11T06:20:15.450Z,5014.00
2023-04-11T06:21:15.742Z,4906.00
2023-04-11T06:22:15.919Z,4107.00
2023-04-11T06:23:16.227Z,3172.00
2023-04-11T06:24:16.522Z,2608.00
2023-04-11T06:25:16.712Z,2855.00
2023-04-11T06:26:17.022Z,3344.00
2023-04-11T06:27:17.184Z,3840.00
2023-04-11T06:28:17.357Z,3484.00
2023-04-11T06:29:17.544Z,4174.00
2023-04-11T06:30:17.852Z,4675.00
2023-04-11T06:31:18.029Z,5479.00
2023-04-11T06:32:18.346Z,4569.00
2023-04-11T06:33:18.650Z,4604.00
2023-04-11T06:34:18.821Z,4682.00
2023-04-11T06:35:19.020Z,6255.00
2023-04-11T06:36:19.322Z,6740.00
2023-04-11T06:37:19.588Z,5981.00
2023-04-11T06:38:19.884Z,7107.00
2023-04-11T06:39:20.205Z,6272.00
2023-04-11T06:40:20.532Z,4476.00
2023-04-11T06:41:20.785Z,4246.00
2023-04-11T06:42:20.959Z,3415.00
2023-04-11T06:43:21.265Z,2609.00
2023-04-11T06:44:21.488Z,2538.00
2023-04-11T06:45:21.673Z,2508.00
2023-04-11T06:46:21.962Z,2188.00
2023-04-11T06:47:22.240Z,1947.00
2023-04-11T06:48:22.531Z,1884.00
2023-04-11T06:49:22.749Z,1511.00
2023-04-11T06:50:23.031Z,1468.00
2023-04-11T06:51:23.177Z,1249.00
2023-04-11T06:52:23.501Z,947.00
2023-04-11T06:53:23.661Z,937.00
2023-04-11T06:54:23.836Z,1009.00
2023-04-11T06:55:24.038Z,1007.00
2023-04-11T06:56:24.181Z,1261.00
2023-04-11T06:57:24.491Z,1557.00
2023-04-11T06:58:24.657Z,1777.00
2023-04-11T06:59:24.916Z,1938.00
2023-04-11T07:00:25.158Z,1970.00
2023-04-11T07:01:25.430Z,1946.00
2023-04-11T07:02:25.808Z,2024.00
2023-04-11T07:03:26.007Z,2225.00
2023-04-11T07:04:26.293Z,2427.00
2023-04-11T07:05:26.423Z,2521.00
2023-04-11T07:06:26.634Z,2447.00
2023-04-11T07:07:26.771Z,2271.00
2023-04-11T07:08:27.079Z,2074.00
2023-04-11T07:09:27.260Z,1884.00
2023-04-11T07:10:27.457Z,1827.00
2023-04-11T07:11:27.620Z,1683.00
2023-04-11T07:12:27.791Z,1546.00
2023-04-11T07:13:27.983Z,1386.00
2023-04-11T07:14:28.139Z,1294.00
2023-04-11T07:15:28.337Z,1298.00
2023-04-11T07:16:28.547Z,1307.00
2023-04-11T07:17:28.682Z,1330.00
2023-04-11T07:18:28.836Z,1137.00
2023-04-11T07:19:29.132Z,1135.00
2023-04-11T07:20:29.449Z,1186.00
2023-04-11T07:21:29.606Z,1244.00
2023-04-11T07:22:29.788Z,1267.00
2023-04-11T07:23:29.966Z,1298.00
2023-04-11T07:24:30.147Z,1378.00
2023-04-11T07:25:30.534Z,1527.00
2023-04-11T07:26:30.744Z,1701.00
2023-04-11T07:27:31.058Z,1749.00
2023-04-11T07:28:31.247Z,1763.00
2023-04-11T07:29:31.413Z,1814.00
2023-04-11T07:30:31.633Z,1835.00
2023-04-11T07:31:31.784Z,1726.00
2023-04-11T07:32:31.981Z,1781.00
2023-04-11T07:33:32.237Z,1819.00
2023-04-11T07:34:32.411Z,1808.00
2023-04-11T07:35:32.652Z,2123.00
2023-04-11T07:36:32.757Z,1820.00
2023-04-11T07:37:33.068Z,1916.00
2023-04-11T07:38:33.261Z,2030.00
2023-04-11T07:39:33.437Z,2278.00
2023-04-11T07:40:33.636Z,2337.00
2023-04-11T07:41:33.912Z,2504.00
2023-04-11T07:42:34.089Z,2702.00
2023-04-11T07:43:34.434Z,2847.00
2023-04-11T07:44:34.688Z,2772.00
2023-04-11T07:45:35.053Z,2821.00
2023-04-11T07:46:35.292Z,2465.00
2023-04-11T07:47:35.662Z,2331.00
2023-04-11T07:48:35.887Z,2773.00
2023-04-11T07:49:36.057Z,2485.00
2023-04-11T07:50:36.263Z,1991.00
2023-04-11T07:51:36.537Z,2254.00
2023-04-11T07:52:36.711Z,2431.00
2023-04-11T07:53:37.016Z,2634.00
2023-04-11T07:54:37.227Z,2286.00
2023-04-11T07:55:37.412Z,3240.00
2023-04-11T07:56:37.679Z,3657.00
2023-04-11T07:57:37.975Z,3773.00
2023-04-11T07:58:38.150Z,3999.00
2023-04-11T07:59:38.458Z,4002.00
2023-04-11T08:00:38.649Z,4238.00
2023-04-11T08:01:38.859Z,4259.00
2023-04-11T08:02:39.320Z,4046.00
2023-04-11T08:03:39.566Z,4371.00
2023-04-11T08:04:39.534Z,4724.00
2023-04-11T08:05:39.855Z,4722.00
2023-04-11T08:06:40.079Z,4913.00
2023-04-11T08:07:40.399Z,4643.00
2023-04-11T08:08:40.571Z,3612.00
2023-04-11T08:09:40.857Z,3920.00
2023-04-11T08:10:41.191Z,3205.00
2023-04-11T08:11:41.346Z,2611.00
2023-04-11T08:12:41.518Z,4019.00
2023-04-11T08:13:41.820Z,6130.00
2023-04-11T08:14:42.033Z,7981.00
2023-04-11T08:15:42.316Z,8629.00
2023-04-11T08:16:42.629Z,7886.00
2023-04-11T08:17:42.788Z,7997.00
2023-04-11T08:18:43.078Z,7965.00
2023-04-11T08:19:43.268Z,8679.00
2023-04-11T08:20:43.460Z,8003.00
2023-04-11T08:21:43.620Z,7186.00
2023-04-11T08:22:43.923Z,7484.00
2023-04-11T08:23:44.932Z,7102.00
2023-04-11T08:24:44.404Z,6426.00
2023-04-11T08:25:44.584Z,6027.00
2023-04-11T08:26:44.764Z,5442.00
2023-04-11T08:27:44.940Z,5613.00
2023-04-11T08:28:45.118Z,5225.00
2023-04-11T08:29:45.416Z,4798.00
2023-04-11T08:30:45.867Z,4528.00
2023-04-11T08:31:46.066Z,4114.00
2023-04-11T08:32:46.344Z,3095.00
2023-04-11T08:33:46.602Z,2991.00
2023-04-11T08:34:46.903Z,3131.00
2023-04-11T08:35:47.122Z,4228.00
2023-04-11T08:36:47.286Z,5776.00
2023-04-11T08:37:47.878Z,6951.00
2023-04-11T08:38:47.763Z,6666.00
2023-04-11T08:39:47.937Z,7160.00
2023-04-11T08:40:48.144Z,6874.00
2023-04-11T08:41:48.335Z,7051.00
2023-04-11T08:42:48.484Z,6065.00
2023-04-11T08:43:48.684Z,5758.00
2023-04-11T08:44:48.983Z,5418.00
2023-04-11T08:45:49.356Z,6953.00
2023-04-11T08:46:49.477Z,8822.00
2023-04-11T08:47:49.689Z,7864.00
2023-04-11T08:48:49.823Z,9820.00
2023-04-11T08:49:49.999Z,12154.00
2023-04-11T08:50:50.247Z,11470.00
2023-04-11T08:51:50.356Z,10527.00
2023-04-11T08:52:50.563Z,11125.00
2023-04-11T08:53:50.850Z,10895.00
2023-04-11T08:54:51.016Z,9608.00
2023-04-11T08:55:51.215Z,12054.00
2023-04-11T08:56:51.640Z,14061.00
2023-04-11T08:57:51.626Z,16367.00
2023-04-11T08:58:51.777Z,15218.00
2023-04-11T08:59:51.973Z,15851.00
2023-04-11T09:00:52.215Z,13767.00
2023-04-11T09:01:52.407Z,15245.00
2023-04-11T09:02:52.629Z,14645.00
2023-04-11T09:03:52.715Z,10177.00
2023-04-11T09:04:52.908Z,11878.00
2023-04-11T09:05:53.182Z,8874.00
2023-04-11T09:06:53.350Z,5995.00
2023-04-11T09:07:53.646Z,6096.00
2023-04-11T09:08:53.950Z,10101.00
2023-04-11T09:09:54.156Z,14943.00
2023-04-11T09:10:54.338Z,15430.00
2023-04-11T09:11:54.574Z,13822.00
2023-04-11T09:12:54.822Z,11366.00
2023-04-11T09:13:55.156Z,8202.00
2023-04-11T09:14:55.189Z,9261.00
2023-04-11T09:15:55.391Z,10424.00
2023-04-11T09:16:55.550Z,8177.00
2023-04-11T09:17:57.598Z,7530.00
2023-04-11T09:18:56.192Z,4949.00
2023-04-11T09:19:56.317Z,4657.00
2023-04-11T09:20:56.514Z,5382.00
2023-04-11T09:21:56.777Z,3517.00
2023-04-11T09:22:57.088Z,3306.00
2023-04-11T09:23:57.390Z,2500.00
2023-04-11T09:24:57.563Z,3142.00
2023-04-11T09:25:57.871Z,4123.00
2023-04-11T09:26:58.050Z,5166.00
2023-04-11T09:27:58.224Z,7712.00
2023-04-11T09:28:58.794Z,9550.00
2023-04-11T09:29:58.721Z,10086.00
2023-04-11T09:30:58.978Z,10663.00
2023-04-11T09:31:59.090Z,11461.00
2023-04-11T09:32:59.342Z,11736.00
2023-04-11T09:33:59.742Z,13959.00
2023-04-11T09:34:59.692Z,16555.00
2023-04-11T09:35:59.854Z,13735.00
2023-04-11T09:36:59.992Z,10987.00
2023-04-11T09:38:00.191Z,10795.00
2023-04-11T09:39:00.388Z,12323.00
2023-04-11T09:40:00.559Z,12074.00
2023-04-11T09:41:00.818Z,17385.00
2023-04-11T09:42:00.925Z,18940.00
2023-04-11T09:43:01.100Z,18121.00
2023-04-11T09:44:01.285Z,16680.00
2023-04-11T09:45:01.542Z,15383.00
2023-04-11T09:46:01.731Z,15293.00
2023-04-11T09:47:01.893Z,8769.00
2023-04-11T09:48:02.029Z,8906.00
2023-04-11T09:49:02.728Z,14201.00
2023-04-11T09:50:02.406Z,9599.00
2023-04-11T09:51:02.597Z,6845.00
2023-04-11T09:52:02.865Z,3525.00
2023-04-11T09:53:03.245Z,3048.00
2023-04-11T09:54:03.600Z,4233.00
2023-04-11T09:55:03.536Z,2922.00
2023-04-11T09:56:03.838Z,2468.00
2023-04-11T09:57:04.004Z,1879.00
2023-04-11T09:58:04.314Z,2492.00
2023-04-11T09:59:05.723Z,4395.00
2023-04-11T10:00:04.799Z,5422.00
2023-04-11T10:01:04.995Z,6150.00
2023-04-11T10:02:05.314Z,6453.00
2023-04-11T10:03:05.492Z,8458.00
2023-04-11T10:04:05.743Z,9136.00
2023-04-11T10:05:05.929Z,9376.00
2023-04-11T10:06:06.119Z,10266.00
2023-04-11T10:07:06.296Z,10197.00
2023-04-11T10:08:06.488Z,11658.00
2023-04-11T10:09:06.686Z,13756.00
2023-04-11T10:10:06.862Z,15541.00
2023-04-11T10:11:07.043Z,15567.00
2023-04-11T10:12:07.234Z,15305.00
2023-04-11T10:13:07.387Z,14569.00
2023-04-11T10:14:07.537Z,13631.00
2023-04-11T10:15:07.747Z,13942.00
2023-04-11T10:16:07.957Z,12280.00
2023-04-11T10:17:08.078Z,12240.00
2023-04-11T10:18:08.281Z,12319.00
2023-04-11T10:19:08.472Z,12497.00
2023-04-11T10:20:08.624Z,12946.00
2023-04-11T10:21:08.809Z,11353.00
2023-04-11T10:22:08.963Z,11045.00
2023-04-11T10:23:09.136Z,13092.00
2023-04-11T10:24:09.343Z,14218.00
2023-04-11T10:25:09.529Z,14658.00
2023-04-11T10:26:09.726Z,15601.00
2023-04-11T10:27:09.896Z,15720.00
2023-04-11T10:28:10.091Z,14695.00
2023-04-11T10:29:10.262Z,14065.00
2023-04-11T10:30:10.453Z,11747.00
2023-04-11T10:31:10.666Z,10097.00
2023-04-11T10:32:10.937Z,13355.00
2023-04-11T10:33:11.130Z,10652.00
2023-04-11T10:34:11.306Z,11179.00
2023-04-11T10:35:11.491Z,12183.00
2023-04-11T10:36:11.836Z,11493.00
2023-04-11T10:37:11.878Z,12264.00
2023-04-11T10:38:12.077Z,11086.00
2023-04-11T10:39:12.202Z,11018.00
2023-04-11T10:40:12.415Z,10226.00
2023-04-11T10:41:12.712Z,12152.00
2023-04-11T10:42:13.187Z,11754.00
2023-04-11T10:43:13.166Z,12618.00
2023-04-11T10:44:13.407Z,13003.00
2023-04-11T10:45:13.593Z,12885.00
2023-04-11T10:46:13.715Z,11837.00
2023-04-11T10:47:13.923Z,10903.00
2023-04-11T10:48:14.080Z,9588.00
2023-04-11T10:49:14.265Z,10724.00
2023-04-11T10:50:14.442Z,11227.00
2023-04-11T10:51:14.658Z,11246.00
2023-04-11T10:52:14.803Z,10125.00
2023-04-11T10:53:14.996Z,9411.00
2023-04-11T10:54:15.163Z,8656.00
2023-04-11T10:55:15.341Z,8486.00
2023-04-11T10:56:16.164Z,7626.00
2023-04-11T10:57:15.845Z,8019.00
2023-04-11T10:58:16.102Z,5914.00
2023-04-11T10:59:16.438Z,5610.00
2023-04-11T11:00:16.592Z,6929.00
2023-04-11T11:01:26.518Z,5793.00
2023-04-11T11:02:17.338Z,7470.00
2023-04-11T11:03:17.649Z,7785.00
2023-04-11T11:04:18.058Z,8258.00
2023-04-11T11:05:17.978Z,6915.00
2023-04-11T11:06:18.158Z,6679.00
2023-04-11T11:07:18.341Z,8410.00
2023-04-11T11:08:18.514Z,7370.00
2023-04-11T11:09:18.679Z,7458.00
2023-04-11T11:10:18.868Z,6202.00
2023-04-11T11:11:19.066Z,7756.00
2023-04-11T11:12:19.327Z,7017.00
2023-04-11T11:13:19.645Z,9168.00
2023-04-11T11:14:19.924Z,10294.00
2023-04-11T11:15:20.128Z,10598.00
2023-04-11T11:16:20.337Z,10695.00
2023-04-11T11:17:20.488Z,10779.00
2023-04-11T11:18:20.659Z,12116.00
2023-04-11T11:19:20.845Z,9307.00
2023-04-11T11:20:21.036Z,11218.00
2023-04-11T11:21:27.210Z,10742.00
2023-04-11T11:22:21.373Z,10431.00
2023-04-11T11:23:21.538Z,10643.00
2023-04-11T11:24:21.737Z,11305.00
2023-04-11T11:25:21.885Z,11265.00
2023-04-11T11:26:22.104Z,11379.00
2023-04-11T11:27:22.386Z,11143.00
2023-04-11T11:28:22.561Z,12033.00
2023-04-11T11:29:22.762Z,12326.00
2023-04-11T11:30:22.949Z,12350.00
2023-04-11T11:31:23.205Z,11104.00
2023-04-11T11:32:23.327Z,11148.00
2023-04-11T11:33:23.505Z,12852.00
2023-04-11T11:34:24.337Z,11639.00
2023-04-11T11:35:23.872Z,12460.00
2023-04-11T11:36:24.103Z,14249.00
2023-04-11T11:37:24.250Z,15574.00
2023-04-11T11:38:24.422Z,14562.00
2023-04-11T11:39:24.614Z,14059.00
2023-04-11T11:40:24.796Z,15588.00
2023-04-11T11:41:25.009Z,15647.00
2023-04-11T11:42:25.150Z,14043.00
2023-04-11T11:43:25.367Z,15702.00
2023-04-11T11:44:25.513Z,14647.00
2023-04-11T11:46:25.973Z,14847.00
2023-04-11T11:47:26.038Z,12017.00
2023-04-11T11:48:26.217Z,12533.00
2023-04-11T11:49:26.385Z,22002.00
2023-04-11T11:50:26.591Z,14660.00
2023-04-11T11:51:26.897Z,13350.00
2023-04-11T11:52:27.072Z,14033.00
2023-04-11T11:53:27.269Z,12927.00
2023-04-11T11:54:27.594Z,9071.00
2023-04-11T11:55:27.750Z,6420.00
2023-04-11T11:56:28.077Z,5525.00
2023-04-11T11:57:28.365Z,5275.00
2023-04-11T11:58:28.568Z,6610.00
2023-04-11T11:59:28.850Z,6681.00
2023-04-11T12:00:29.119Z,4066.00
2023-04-11T12:01:29.322Z,3014.00
2023-04-11T12:02:29.596Z,2818.00
2023-04-11T12:03:30.126Z,3039.00
2023-04-11T12:04:30.271Z,3209.00
2023-04-11T12:05:30.812Z,2713.00
2023-04-11T12:06:30.608Z,2544.00
2023-04-11T12:07:30.877Z,2396.00
2023-04-11T12:08:31.061Z,2386.00
2023-04-11T12:09:31.361Z,2150.00
2023-04-11T12:10:31.560Z,2133.00
2023-04-11T12:11:31.727Z,1986.00
2023-04-11T12:12:32.009Z,1885.00
2023-04-11T12:13:32.317Z,2338.00
2023-04-11T12:14:32.490Z,3131.00
2023-04-11T12:15:32.826Z,3239.00
2023-04-11T12:16:33.082Z,2831.00
2023-04-11T12:17:35.353Z,2563.00
2023-04-11T12:18:33.600Z,2854.00
2023-04-11T12:19:33.756Z,3115.00
2023-04-11T12:20:33.939Z,2698.00
2023-04-11T12:21:34.121Z,2050.00
2023-04-11T12:22:34.332Z,1454.00
2023-04-11T12:23:34.484Z,1216.00
2023-04-11T12:24:34.673Z,1104.00
2023-04-11T12:25:34.849Z,951.00
2023-04-11T12:26:35.099Z,973.00
2023-04-11T12:27:35.193Z,1286.00
2023-04-11T12:28:35.374Z,1819.00
2023-04-11T12:29:35.568Z,2227.00
2023-04-11T12:30:35.729Z,2552.00
2023-04-11T12:31:35.970Z,3060.00